Time;durP1;ratioP1;P1;durP2;ratioP2;P2;SDS_P1;SDS_P2;PMS_P1;PMS_P2;Temp;Humidity;BMP_temperature;BMP_pressure;BME280_temperature;BME280_humidity;BME280_pressure;Samples;Min_cycle;Max_cycle;Signal;HPM_P1;HPM_P2
2022/06/02 00:02:02;;;;;;;9.70;9.20;;;;;;;16.76;80.64;93004.72;5071033;28;20247;-77
2022/06/02 00:04:43;;;;;;;9.40;8.83;;;;;;;16.78;80.97;93004.44;5070729;28;20227;-76
2022/06/02 00:07:17;;;;;;;9.63;9.03;;;;;;;16.57;80.83;92983.13;5070560;28;20363;-77
2022/06/02 00:10:03;;;;;;;8.77;8.17;;;;;;;16.63;81.54;93002.19;5069000;28;20212;-76
2022/06/02 00:12:47;;;;;;;9.47;8.67;;;;;;;16.59;81.08;92991.47;5070026;28;20239;-77
2022/06/02 00:15:26;;;;;;;9.43;8.60;;;;;;;16.68;81.26;93007.34;5071543;28;20190;-76
2022/06/02 00:17:57;;;;;;;9.10;8.70;;;;;;;16.67;81.30;93011.81;5066748;28;20765;-77
2022/06/02 00:20:32;;;;;;;9.47;8.87;;;;;;;16.48;81.79;93000.78;5071216;28;20249;-76
2022/06/02 00:23:31;;;;;;;8.80;8.30;;;;;;;16.61;82.05;93014.91;5070385;28;20220;-77
2022/06/02 00:26:15;;;;;;;10.10;9.40;;;;;;;16.43;82.40;93013.25;5071265;28;20281;-78
2022/06/02 00:29:00;;;;;;;9.37;8.87;;;;;;;16.47;82.30;93015.00;5069130;28;20224;-76
2022/06/02 00:31:47;;;;;;;10.07;9.17;;;;;;;16.48;81.86;93008.69;5069911;28;20193;-76
2022/06/02 00:34:24;;;;;;;8.97;8.47;;;;;;;16.44;81.58;93007.72;5070095;28;20185;-77
2022/06/02 00:37:23;;;;;;;9.67;9.07;;;;;;;16.56;81.50;93002.63;5065529;28;20224;-77
2022/06/02 00:39:51;;;;;;;10.57;9.60;;;;;;;16.25;81.26;92970.25;5049816;28;20185;-77
2022/06/02 00:42:25;;;;;;;8.90;8.40;;;;;;;16.61;81.03;93005.13;5067798;28;20218;-77
2022/06/02 00:45:00;;;;;;;9.40;8.90;;;;;;;16.43;80.14;92950.78;5050986;28;20193;-77
2022/06/02 00:47:44;;;;;;;9.73;9.23;;;;;;;16.64;80.10;92999.25;5060147;28;20228;-77
2022/06/02 00:50:10;;;;;;;9.60;9.00;;;;;;;16.57;79.99;93000.78;5068704;28;20200;-77
2022/06/02 00:52:47;;;;;;;10.27;9.67;;;;;;;16.66;79.93;93002.38;5069258;28;20501;-76
2022/06/02 00:58:45;;;;;;;8.57;8.13;;;;;;;16.46;80.68;92983.69;5070489;28;20281;-77
2022/06/02 01:01:17;;;;;;;10.70;9.80;;;;;;;16.36;80.28;92962.88;5018482;28;20220;-77
2022/06/02 01:03:47;;;;;;;9.60;8.90;;;;;;;16.43;79.63;92957.91;5067971;28;20261;-78
2022/06/02 01:06:32;;;;;;;10.07;9.50;;;;;;;16.84;79.27;93003.97;5069932;28;20759;-77
2022/06/02 01:09:39;;;;;;;10.17;9.50;;;;;;;16.71;79.36;92998.81;5070063;28;20228;-77
2022/06/02 01:12:07;;;;;;;9.53;9.03;;;;;;;16.81;79.37;92998.56;5045852;28;20319;-77
2022/06/02 01:14:51;;;;;;;10.40;9.70;;;;;;;16.82;79.70;93000.88;5069274;28;20178;-78
2022/06/02 01:17:36;;;;;;;9.83;9.23;;;;;;;16.74;80.27;93000.84;5094813;28;20214;-77
2022/06/02 01:20:10;;;;;;;9.53;8.93;;;;;;;16.74;80.12;93006.91;5050275;28;20209;-78
2022/06/02 01:23:03;;;;;;;9.73;9.23;;;;;;;16.46;81.09;93007.41;5049741;28;20228;-77
2022/06/02 01:25:46;;;;;;;9.83;9.13;;;;;;;16.40;81.95;93001.47;5050458;28;20189;-76
2022/06/02 01:28:29;;;;;;;12.87;9.60;;;;;;;16.17;81.90;92975.50;5049715;28;20226;-77
2022/06/02 01:31:14;;;;;;;9.70;9.00;;;;;;;16.28;82.94;93008.41;5047080;28;20201;-77
2022/06/02 01:33:51;;;;;;;9.93;9.13;;;;;;;16.34;82.84;93007.19;5100751;28;20229;-77
2022/06/02 01:36:30;;;;;;;10.27;9.57;;;;;;;16.33;82.99;93006.41;5067387;28;20261;-77
2022/06/02 01:39:33;;;;;;;10.30;9.53;;;;;;;16.30;83.42;93003.59;5069050;28;20194;-78
2022/06/02 01:42:11;;;;;;;9.73;9.03;;;;;;;16.30;82.94;93004.38;5068397;28;20242;-75
2022/06/02 01:44:45;;;;;;;9.33;8.80;;;;;;;16.31;83.08;92995.38;5067731;28;20292;-78
2022/06/02 01:47:26;;;;;;;9.90;9.30;;;;;;;16.36;82.98;93005.78;5066315;28;20225;-77
2022/06/02 01:50:08;;;;;;;9.50;8.77;;;;;;;16.26;83.93;92997.38;5069407;28;20192;-77
2022/06/02 01:52:57;;;;;;;10.20;9.50;;;;;;;16.02;84.11;92997.72;5068723;28;20263;-76
2022/06/02 01:55:32;;;;;;;9.50;8.93;;;;;;;16.04;84.53;93006.09;5060378;28;20340;-75
2022/06/02 01:58:21;;;;;;;9.80;9.30;;;;;;;16.01;83.97;92996.97;5068714;28;21217;-76
2022/06/02 02:00:57;;;;;;;9.13;8.63;;;;;;;15.84;84.31;92954.69;5068489;28;20204;-76
2022/06/02 02:03:45;;;;;;;10.50;9.90;;;;;;;16.11;84.15;92995.91;5082874;28;20237;-76
2022/06/02 02:06:39;;;;;;;9.57;8.67;;;;;;;15.88;84.53;92986.47;5069200;28;20184;-77
2022/06/02 02:09:17;;;;;;;9.20;8.60;;;;;;;15.99;84.85;93003.59;5069585;28;20938;-76
2022/06/02 02:11:55;;;;;;;8.10;7.80;;;;;;;15.84;84.73;92975.00;5068358;28;20224;-76
2022/06/02 02:15:02;;;;;;;8.90;8.50;;;;;;;15.93;85.19;92994.25;5101807;28;20182;-77
2022/06/02 02:17:58;;;;;;;9.53;8.93;;;;;;;15.84;85.40;92985.53;5067913;28;20221;-77
2022/06/02 02:20:40;;;;;;;9.80;9.20;;;;;;;15.86;84.98;92972.84;5069599;28;20185;-77
2022/06/02 02:23:11;;;;;;;9.53;8.87;;;;;;;15.99;84.17;92985.94;5068624;28;20231;-77
2022/06/02 02:25:43;;;;;;;9.23;8.63;;;;;;;15.97;85.23;92985.44;5069489;28;20196;-76
2022/06/02 02:28:46;;;;;;;9.20;8.60;;;;;;;16.00;85.13;92982.22;5068196;28;20210;-76
2022/06/02 02:31:33;;;;;;;10.07;9.37;;;;;;;16.04;85.28;92974.50;5084512;28;20231;-76
2022/06/02 02:34:04;;;;;;;9.07;8.57;;;;;;;15.89;85.70;92980.91;5068156;28;20255;-77
2022/06/02 02:36:36;;;;;;;10.47;9.87;;;;;;;15.82;86.30;92982.41;5067716;28;20310;-77
2022/06/02 02:39:07;;;;;;;8.87;8.27;;;;;;;15.72;86.45;92982.69;5101031;28;20197;-76
2022/06/02 02:41:46;;;;;;;9.53;8.97;;;;;;;15.84;84.79;92990.81;5068205;28;20185;-76
2022/06/02 02:44:36;;;;;;;9.77;9.17;;;;;;;15.81;85.58;92989.53;5068943;28;20212;-77
2022/06/02 02:47:30;;;;;;;9.27;8.57;;;;;;;15.76;85.80;92983.63;5068374;28;20237;-77
2022/06/02 02:50:12;;;;;;;8.97;8.47;;;;;;;15.66;86.62;92976.75;5068182;28;20220;-77
2022/06/02 02:52:52;;;;;;;10.57;9.40;;;;;;;15.81;86.25;92994.81;5067912;28;20229;-76
2022/06/02 02:55:52;;;;;;;9.27;8.77;;;;;;;15.76;86.12;93002.06;5068068;28;20232;-75
2022/06/02 02:58:27;;;;;;;9.37;8.77;;;;;;;15.71;87.32;93000.31;5068760;28;20236;-76
2022/06/02 03:01:02;;;;;;;9.70;9.20;;;;;;;15.97;86.08;93005.72;5067411;28;20184;-76
2022/06/02 03:03:40;;;;;;;9.67;9.13;;;;;;;16.41;83.59;93002.22;5068178;28;20254;-76
2022/06/02 03:06:14;;;;;;;9.73;9.23;;;;;;;16.88;81.21;93004.13;5067805;28;20182;-77
2022/06/02 03:09:05;;;;;;;9.50;8.90;;;;;;;17.51;78.28;93007.81;5064348;28;20228;-77
2022/06/02 03:11:34;;;;;;;10.97;10.30;;;;;;;17.76;76.53;93013.41;5049652;28;20237;-77
2022/06/02 03:14:32;;;;;;;9.23;8.63;;;;;;;18.75;72.31;93016.44;5052626;28;20183;-77
2022/06/02 03:17:32;;;;;;;8.40;7.90;;;;;;;19.14;69.94;93026.66;5049810;28;20245;-77
2022/06/02 03:20:04;;;;;;;10.03;9.47;;;;;;;19.26;69.54;93021.44;5051267;28;20206;-77
2022/06/02 03:22:48;;;;;;;9.20;8.67;;;;;;;19.20;70.30;93022.75;5052223;28;20250;-77
2022/06/02 03:25:38;;;;;;;9.27;8.27;;;;;;;19.47;69.36;93024.91;5052979;28;20216;-85
2022/06/02 03:28:04;;;;;;;9.50;8.80;;;;;;;20.08;67.18;93024.09;5066236;28;20298;-88
2022/06/02 03:30:53;;;;;;;8.73;8.23;;;;;;;20.77;63.39;92994.19;5072748;28;20277;-87
2022/06/02 03:33:39;;;;;;;9.23;8.63;;;;;;;20.56;64.16;93023.50;5070919;28;20307;-87
2022/06/02 03:36:20;;;;;;;8.77;8.20;;;;;;;20.00;66.86;93022.31;5087829;28;20202;-88
2022/06/02 03:39:09;;;;;;;9.63;8.90;;;;;;;20.64;64.83;93022.59;5071628;28;20221;-88
2022/06/02 03:41:42;;;;;;;9.90;9.20;;;;;;;20.92;63.67;93028.06;5070319;28;20187;-87
2022/06/02 03:44:08;;;;;;;9.17;8.60;;;;;;;23.09;57.07;93034.22;5072283;28;20205;-87
2022/06/02 03:46:37;;;;;;;9.05;8.55;;;;;;;23.88;53.80;93035.63;5071554;28;20173;-87
2022/06/02 03:49:11;;;;;;;8.43;7.95;;;;;;;22.42;57.61;93022.97;5102498;28;20200;-83
2022/06/02 03:52:14;;;;;;;9.43;8.50;;;;;;;21.05;62.89;93029.63;5070861;28;20279;-80
2022/06/02 03:55:08;;;;;;;13.18;8.45;;;;;;;22.02;60.21;93036.38;5071251;28;20219;-80
2022/06/02 03:57:47;;;;;;;9.88;9.27;;;;;;;22.43;58.37;93033.28;5068875;28;20258;-78
2022/06/02 04:00:13;;;;;;;9.10;8.30;;;;;;;21.96;59.30;93027.84;5073923;28;20222;-74
2022/06/02 04:02:54;;;;;;;9.80;9.13;;;;;;;21.44;61.42;93024.41;5070114;28;20232;-71
2022/06/02 04:05:50;;;;;;;9.25;8.35;;;;;;;21.54;61.27;93012.56;5070621;28;20242;-72
2022/06/02 04:08:37;;;;;;;9.90;9.07;;;;;;;21.26;62.20;93015.13;5052287;28;20241;-75
2022/06/02 04:11:12;;;;;;;10.38;9.77;;;;;;;21.10;62.51;93011.63;5048167;28;20237;-77
2022/06/02 04:14:03;;;;;;;9.85;9.23;;;;;;;21.26;62.19;93009.81;5049262;28;20240;-85
2022/06/02 04:16:59;;;;;;;10.30;9.70;;;;;;;20.60;64.34;93003.94;5082914;28;20769;-82
2022/06/02 04:23:07;;;;;;;9.77;8.70;;;;;;;20.17;66.90;93000.97;5050149;28;20317;-78
2022/06/02 04:25:52;;;;;;;10.17;9.47;;;;;;;20.11;67.61;93006.78;5050123;28;20196;-77
2022/06/02 04:28:24;;;;;;;9.70;9.10;;;;;;;19.89;69.19;93004.50;5049055;28;20227;-78
2022/06/02 04:31:27;;;;;;;9.73;9.17;;;;;;;19.70;69.68;93007.63;5081545;28;20226;-76
2022/06/02 04:34:17;;;;;;;10.67;9.87;;;;;;;19.65;70.21;93005.16;5070974;28;20232;-80
2022/06/02 04:37:22;;;;;;;10.57;9.77;;;;;;;19.80;70.67;93009.84;5066112;28;20308;-89
2022/06/02 04:39:56;;;;;;;11.47;10.37;;;;;;;19.30;72.49;93025.03;5008357;28;20208;-78
2022/06/02 04:42:34;;;;;;;13.00;11.77;;;;;;;19.51;73.19;93027.69;5057916;28;21110;-79
2022/06/02 04:45:18;;;;;;;11.53;10.57;;;;;;;19.80;72.78;93033.69;5068735;28;20190;-79
2022/06/02 04:47:49;;;;;;;14.20;12.63;;;;;;;19.43;73.89;93026.66;5067668;28;20217;-80
2022/06/02 04:50:26;;;;;;;12.73;11.47;;;;;;;19.17;74.29;93000.31;5069136;28;20183;-82
2022/06/02 04:53:20;;;;;;;13.30;11.57;;;;;;;19.89;73.09;93037.06;5069430;28;20230;-78
2022/06/02 04:56:01;;;;;;;11.60;10.70;;;;;;;19.95;71.79;93035.78;5069133;28;20186;-79
2022/06/02 04:58:38;;;;;;;12.23;11.23;;;;;;;20.25;70.46;93036.47;5067568;28;20220;-79
2022/06/02 05:01:15;;;;;;;11.03;10.13;;;;;;;20.25;70.45;93042.53;5069180;28;20188;-80
2022/06/02 05:03:53;;;;;;;13.57;12.23;;;;;;;20.27;70.84;93042.19;5068102;28;20255;-79
2022/06/02 05:06:27;;;;;;;12.50;11.40;;;;;;;19.76;72.99;93038.13;5067503;28;20187;-82
2022/06/02 05:09:12;;;;;;;12.37;11.47;;;;;;;21.51;66.42;93042.44;5049611;28;20249;-79
2022/06/02 05:11:45;;;;;;;11.70;10.67;;;;;;;21.48;65.55;93037.81;5048980;28;20290;-80
2022/06/02 05:14:28;;;;;;;12.63;10.37;;;;;;;21.15;65.23;93007.97;5080691;28;20239;-80
2022/06/02 05:17:15;;;;;;;10.50;9.70;;;;;;;21.01;66.38;93029.53;5052999;28;20224;-79
2022/06/02 05:20:12;;;;;;;11.95;10.02;;;;;;;20.81;67.76;93045.53;5069518;28;20218;-79
2022/06/02 05:22:59;;;;;;;11.55;10.40;;;;;;;20.57;67.14;92991.34;5067476;28;20239;-80
2022/06/02 05:25:45;;;;;;;12.40;11.13;;;;;;;21.44;64.91;93024.41;5069107;28;20185;-79
2022/06/02 05:28:39;;;;;;;12.15;11.15;;;;;;;21.90;64.04;93039.03;5084577;28;20220;-81
2022/06/02 05:31:45;;;;;;;11.02;10.23;;;;;;;24.42;55.66;93054.28;5068722;28;20194;-79
2022/06/02 05:34:25;;;;;;;10.93;10.05;;;;;;;29.58;41.83;93065.47;5068243;28;20249;-79
2022/06/02 05:37:06;;;;;;;10.25;9.32;;;;;;;32.45;35.95;93073.16;5067115;28;20261;-79
2022/06/02 05:39:38;;;;;;;9.77;9.10;;;;;;;34.08;32.18;93061.59;5071375;28;20185;-79
2022/06/02 05:42:33;;;;;;;9.30;8.70;;;;;;;35.40;29.53;93087.28;5101625;28;20261;-80
2022/06/02 05:45:11;;;;;;;10.70;9.65;;;;;;;35.50;28.90;93089.00;5068545;28;20219;-82
2022/06/02 05:47:37;;;;;;;11.50;8.80;;;;;;;37.07;27.60;93098.97;5084039;28;20217;-79
2022/06/02 05:50:11;;;;;;;9.55;8.75;;;;;;;36.14;28.16;93098.34;5069356;28;20201;-79
2022/06/02 05:52:49;;;;;;;9.45;8.65;;;;;;;36.60;27.29;93106.88;5068030;28;20224;-80
2022/06/02 05:55:18;;;;;;;9.70;8.25;;;;;;;36.13;28.45;93092.16;5069236;28;20181;-79
2022/06/02 05:57:55;;;;;;;11.43;8.82;;;;;;;36.88;26.38;93097.97;5067079;28;20273;-80
2022/06/02 06:00:56;;;;;;;11.00;9.40;;;;;;;37.06;25.97;93087.31;5068903;28;20185;-79
2022/06/02 06:03:32;;;;;;;9.07;8.38;;;;;;;37.61;25.91;93101.66;5067601;28;20228;-80
2022/06/02 06:06:18;;;;;;;9.07;8.38;;;;;;;38.67;24.64;93112.63;5066862;28;20182;-79
2022/06/02 06:08:53;;;;;;;8.88;8.10;;;;;;;38.57;24.36;93113.78;5066079;28;20216;-80
2022/06/02 06:11:30;;;;;;;9.27;8.57;;;;;;;39.65;23.04;93098.09;5081203;28;20238;-80
2022/06/02 06:13:58;;;;;;;8.40;7.80;;;;;;;39.40;23.81;93092.78;5047621;28;20209;-80
2022/06/02 06:16:36;;;;;;;8.27;7.57;;;;;;;40.57;22.05;93100.63;5064768;28;20196;-80
2022/06/02 06:19:24;;;;;;;8.13;7.32;;;;;;;39.75;22.05;93099.66;5068426;28;20846;-80
2022/06/02 06:22:21;;;;;;;8.23;7.63;;;;;;;39.97;22.25;93097.63;5062669;28;21197;-80
2022/06/02 06:25:24;;;;;;;7.25;6.68;;;;;;;39.83;22.14;93089.97;5048270;28;20198;-79
2022/06/02 06:28:09;;;;;;;7.40;6.75;;;;;;;39.15;23.92;93091.00;5047512;28;20247;-81
2022/06/02 06:30:56;;;;;;;7.57;7.07;;;;;;;39.81;21.81;93098.63;5063033;28;20193;-80
2022/06/02 06:33:46;;;;;;;7.22;6.72;;;;;;;39.61;22.22;93059.19;5065077;28;20228;-80
2022/06/02 06:36:39;;;;;;;7.40;6.72;;;;;;;39.22;23.26;93093.47;5068458;28;20193;-80
2022/06/02 06:39:14;;;;;;;7.50;6.78;;;;;;;39.25;22.66;93097.28;5067645;28;20268;-79
2022/06/02 06:42:07;;;;;;;7.90;7.30;;;;;;;35.54;26.94;93053.59;5067382;28;20305;-80
2022/06/02 06:44:35;;;;;;;7.97;7.38;;;;;;;36.17;26.83;93076.53;5068170;28;20177;-79
2022/06/02 06:47:36;;;;;;;8.45;7.55;;;;;;;32.83;30.59;93073.13;5071741;28;20233;-79
2022/06/02 06:50:20;;;;;;;9.10;8.38;;;;;;;28.59;40.28;93058.41;5009671;28;20222;-80
2022/06/02 06:52:51;;;;;;;9.18;8.35;;;;;;;27.38;43.17;93046.56;5064995;28;20221;-80
2022/06/02 06:55:41;;;;;;;9.45;8.80;;;;;;;26.44;45.82;93052.47;5070816;28;20197;-79
2022/06/02 06:58:11;;;;;;;9.05;8.38;;;;;;;25.48;48.37;93009.53;5071341;28;20221;-80
2022/06/02 07:00:43;;;;;;;11.85;10.95;;;;;;;25.38;49.64;93041.47;5087872;28;20994;-80
2022/06/02 07:03:15;;;;;;;11.07;10.13;;;;;;;24.65;53.38;93042.50;5055518;28;20237;-79
2022/06/02 07:05:54;;;;;;;9.93;9.20;;;;;;;24.10;54.00;93042.97;5054108;28;20204;-79
2022/06/02 07:08:37;;;;;;;9.75;8.50;;;;;;;24.09;53.75;93046.00;5049662;28;20239;-80
2022/06/02 07:14:09;;;;;;;9.55;8.75;;;;;;;24.60;53.10;93044.69;5050083;28;20236;-80
2022/06/02 07:16:47;;;;;;;10.82;9.65;;;;;;;24.13;51.71;92977.44;5050788;28;20448;-79
2022/06/02 07:19:22;;;;;;;9.88;9.00;;;;;;;24.38;53.85;93056.09;5051041;28;20193;-79
2022/06/02 07:22:03;;;;;;;9.40;8.60;;;;;;;23.97;54.04;93048.81;5049344;28;20239;-79
2022/06/02 07:24:48;;;;;;;10.27;9.23;;;;;;;24.01;52.74;93060.31;5051343;28;20181;-78
2022/06/02 07:27:26;;;;;;;9.43;8.50;;;;;;;23.96;52.10;92997.34;5050555;28;20220;-79
2022/06/02 07:30:25;;;;;;;9.30;8.70;;;;;;;23.66;52.42;93012.28;5051191;28;20195;-80
2022/06/02 07:33:20;;;;;;;9.18;8.57;;;;;;;24.34;51.87;93045.38;5050119;28;20255;-79
2022/06/02 07:36:10;;;;;;;10.02;8.88;;;;;;;24.60;50.99;93052.69;5043867;28;20205;-79
2022/06/02 07:38:56;;;;;;;9.65;8.85;;;;;;;24.93;51.54;93050.28;5069648;28;20270;-79
2022/06/02 07:41:38;;;;;;;9.73;8.77;;;;;;;24.56;50.73;93006.47;5070113;28;20189;-80
2022/06/02 07:44:25;;;;;;;9.50;8.70;;;;;;;24.69;51.38;93054.03;5086703;28;20189;-79
2022/06/02 07:46:56;;;;;;;10.02;9.07;;;;;;;24.60;51.76;93060.72;5069693;28;20231;-79
2022/06/02 07:49:45;;;;;;;10.13;9.25;;;;;;;24.93;50.54;93035.03;5070608;28;20203;-79
2022/06/02 07:52:38;;;;;;;9.75;8.95;;;;;;;24.71;51.72;93067.03;5070628;28;20246;-79
2022/06/02 07:55:42;;;;;;;9.38;8.57;;;;;;;25.03;50.58;93063.00;5070236;28;20212;-79
2022/06/02 07:58:21;;;;;;;9.68;8.77;;;;;;;24.40;51.97;93061.84;5085355;28;20246;-79
2022/06/02 08:01:03;;;;;;;9.00;8.30;;;;;;;24.56;51.93;93027.84;5071023;28;20176;-80
2022/06/02 08:03:47;;;;;;;9.95;9.25;;;;;;;25.03;49.18;93065.69;5099715;28;20220;-79
2022/06/02 08:06:20;;;;;;;10.23;9.23;;;;;;;24.57;50.82;93040.84;5070463;28;20187;-79
2022/06/02 08:09:20;;;;;;;9.93;9.13;;;;;;;24.69;52.83;93069.28;5068266;28;20211;-79
2022/06/02 08:11:58;;;;;;;9.90;9.00;;;;;;;24.59;54.10;93064.50;5065319;28;20241;-80
2022/06/02 08:14:41;;;;;;;9.50;8.80;;;;;;;24.60;52.18;93060.72;5065361;28;20190;-79
2022/06/02 08:17:20;;;;;;;9.55;8.90;;;;;;;24.89;52.05;93065.44;5049544;28;20300;-79
2022/06/02 08:19:52;;;;;;;9.70;9.13;;;;;;;25.22;50.46;93060.28;5049526;28;20272;-80
2022/06/02 08:22:42;;;;;;;10.25;9.38;;;;;;;24.89;50.16;93015.47;5049288;28;20289;-81
2022/06/02 08:25:21;;;;;;;9.52;8.88;;;;;;;25.07;52.03;93053.94;5050720;28;20194;-79
2022/06/02 08:28:00;;;;;;;10.90;10.00;;;;;;;25.02;52.97;93051.56;5049469;28;20258;-80
2022/06/02 08:31:12;;;;;;;10.77;9.88;;;;;;;25.11;49.17;93054.00;5051352;28;20180;-79
2022/06/02 08:33:59;;;;;;;8.10;7.60;;;;;;;25.53;47.92;93057.38;5046386;28;20232;-80
2022/06/02 08:36:33;;;;;;;9.73;9.05;;;;;;;25.50;46.87;93047.38;5047575;28;20196;-79
2022/06/02 08:39:51;;;;;;;8.98;8.18;;;;;;;25.28;47.56;93016.88;5048538;28;20203;-79
2022/06/02 08:42:33;;;;;;;9.90;9.20;;;;;;;25.66;46.89;93040.00;5034028;28;20221;-80
2022/06/02 08:45:17;;;;;;;9.20;8.55;;;;;;;25.54;46.50;93053.56;5068282;28;20204;-79
2022/06/02 08:47:54;;;;;;;9.80;9.10;;;;;;;24.89;47.73;92939.88;5067607;28;20222;-79
2022/06/02 08:50:38;;;;;;;8.75;8.25;;;;;;;25.46;45.62;93057.28;5069655;28;20196;-78
2022/06/02 08:53:35;;;;;;;7.63;7.13;;;;;;;25.41;44.17;93052.22;5063681;28;20249;-79
2022/06/02 08:56:36;;;;;;;8.82;8.20;;;;;;;25.60;46.93;93054.81;5050168;28;20207;-79
2022/06/02 08:59:29;;;;;;;8.48;7.78;;;;;;;25.74;47.84;93049.66;5067917;28;20211;-79
2022/06/02 09:01:58;;;;;;;8.50;7.80;;;;;;;25.83;47.80;93050.16;5065287;28;20229;-78
2022/06/02 09:04:45;;;;;;;10.13;9.20;;;;;;;25.93;45.89;93051.44;5049679;28;20214;-79
2022/06/02 09:07:22;;;;;;;11.93;8.45;;;;;;;25.95;44.67;93060.63;5080826;28;20233;-80
2022/06/02 09:10:13;;;;;;;9.60;8.73;;;;;;;25.63;43.71;93059.44;5048415;28;20193;-79
2022/06/02 09:13:05;;;;;;;8.27;7.88;;;;;;;25.96;40.93;93040.75;5051243;28;20248;-80
2022/06/02 09:15:55;;;;;;;9.43;8.52;;;;;;;26.18;40.85;93061.34;5049481;28;20201;-79
2022/06/02 09:18:42;;;;;;;8.00;7.50;;;;;;;25.93;41.74;93051.44;5049179;28;20225;-78
2022/06/02 09:21:17;;;;;;;8.63;8.02;;;;;;;26.21;37.13;93057.19;5049369;28;20200;-79
2022/06/02 09:24:17;;;;;;;8.32;7.70;;;;;;;25.77;39.28;93056.19;5068445;28;20236;-79
2022/06/02 09:27:02;;;;;;;9.48;8.48;;;;;;;25.94;37.30;93056.44;5064588;28;20227;-79
2022/06/02 09:29:42;;;;;;;9.18;8.43;;;;;;;25.81;38.01;93041.72;5100581;28;20188;-80
2022/06/02 09:32:07;;;;;;;9.27;8.48;;;;;;;25.95;38.32;93051.81;5068358;28;20247;-79
2022/06/02 09:34:50;;;;;;;9.27;8.40;;;;;;;26.13;40.32;93050.19;5069172;28;20184;-79
2022/06/02 09:37:44;;;;;;;9.25;8.57;;;;;;;26.33;37.98;93048.91;5068544;28;20233;-79
2022/06/02 09:40:21;;;;;;;8.80;8.10;;;;;;;25.79;41.85;93046.66;5065103;28;20197;-79
2022/06/02 09:43:22;;;;;;;9.57;8.77;;;;;;;26.09;43.71;93044.00;5063877;28;20228;-79
2022/06/02 09:46:25;;;;;;;9.43;8.50;;;;;;;25.73;40.85;93037.41;5046812;28;20188;-80
2022/06/02 09:48:57;;;;;;;8.85;8.20;;;;;;;26.28;41.23;93044.66;5068188;28;20209;-80
2022/06/02 09:51:47;;;;;;;9.00;8.30;;;;;;;26.68;39.23;93039.38;5099380;28;20180;-79
2022/06/02 09:54:41;;;;;;;9.32;8.18;;;;;;;26.94;38.97;93043.06;5067758;28;20273;-80
2022/06/02 10:00:18;;;;;;;9.23;8.48;;;;;;;26.14;37.24;92966.84;5069305;28;20204;-80
2022/06/02 10:03:12;;;;;;;9.75;8.93;;;;;;;26.80;36.01;93029.53;5057196;28;20283;-79
2022/06/02 10:05:54;;;;;;;8.77;8.27;;;;;;;26.77;34.61;93041.00;5048498;28;20190;-79
2022/06/02 10:09:05;;;;;;;8.20;7.60;;;;;;;26.84;34.47;93028.44;5048165;28;20259;-80
2022/06/02 10:15:09;;;;;;;8.38;7.72;;;;;;;26.83;33.73;93040.28;5047087;28;20225;-79
2022/06/02 10:17:44;;;;;;;9.73;8.20;;;;;;;26.72;33.98;93040.16;5080755;28;20226;-79
2022/06/02 10:20:28;;;;;;;8.60;8.00;;;;;;;26.92;33.13;93037.31;5046641;28;20209;-79
2022/06/02 10:23:17;;;;;;;8.60;7.90;;;;;;;27.11;32.82;93032.50;5060004;28;20225;-80
2022/06/02 10:26:21;;;;;;;8.65;8.00;;;;;;;27.28;32.31;93033.81;5101110;28;20177;-79
2022/06/02 10:29:24;;;;;;;9.25;7.80;;;;;;;27.21;31.16;93031.06;5055608;28;20235;-79
2022/06/02 10:32:16;;;;;;;8.45;7.65;;;;;;;27.13;32.46;93024.09;5067300;28;20221;-79
2022/06/02 10:35:09;;;;;;;8.38;7.80;;;;;;;27.25;33.22;93023.81;5050263;28;20226;-80
2022/06/02 10:37:53;;;;;;;8.13;7.43;;;;;;;27.45;33.53;93027.81;5067098;28;20248;-79
2022/06/02 10:40:36;;;;;;;8.10;7.60;;;;;;;27.51;31.88;93029.78;5067958;28;20177;-79
2022/06/02 10:43:24;;;;;;;8.02;7.50;;;;;;;27.52;32.36;93027.88;5067346;28;20857;-79
2022/06/02 10:46:14;;;;;;;8.75;7.93;;;;;;;27.56;32.24;93013.34;5067612;28;20177;-81
2022/06/02 10:48:55;;;;;;;9.20;8.02;;;;;;;27.68;30.61;93009.56;5047540;28;20233;-79
2022/06/02 10:51:29;;;;;;;9.02;8.15;;;;;;;27.66;32.39;93003.81;5047536;28;20190;-78
2022/06/02 10:54:20;;;;;;;9.32;8.40;;;;;;;27.70;32.99;93007.28;5067633;28;20200;-79
2022/06/02 10:57:11;;;;;;;8.85;8.05;;;;;;;27.47;31.48;93006.75;5066417;28;20289;-79
2022/06/02 11:00:13;;;;;;;9.32;8.63;;;;;;;27.51;29.96;92997.59;5065200;28;20189;-79
2022/06/02 11:03:16;;;;;;;9.05;8.32;;;;;;;27.61;28.43;92998.81;5054973;28;20229;-80
2022/06/02 11:06:04;;;;;;;8.35;7.75;;;;;;;26.82;29.91;92952.25;5069005;28;20181;-80
2022/06/02 11:08:51;;;;;;;8.95;8.27;;;;;;;26.74;30.84;92997.72;5067104;28;20279;-79
2022/06/02 11:11:54;;;;;;;9.00;8.30;;;;;;;27.45;32.47;93001.00;5066492;28;20263;-79
2022/06/02 11:14:34;;;;;;;8.55;7.95;;;;;;;27.66;31.28;92993.09;5067177;28;20220;-81
2022/06/02 11:17:26;;;;;;;8.80;7.95;;;;;;;27.69;32.41;92985.03;5066958;28;20243;-80
2022/06/02 11:20:25;;;;;;;7.95;7.45;;;;;;;27.76;29.86;92995.81;5067536;28;20272;-80
2022/06/02 11:23:17;;;;;;;8.35;7.75;;;;;;;27.50;30.27;92995.28;5053304;28;20268;-79
2022/06/02 11:26:10;;;;;;;8.68;7.97;;;;;;;27.35;29.89;92993.66;5046906;28;20213;-80
2022/06/02 11:29:06;;;;;;;8.32;7.43;;;;;;;27.80;30.53;93001.22;5045412;28;20240;-80
2022/06/02 11:31:57;;;;;;;8.38;7.78;;;;;;;27.59;30.58;92993.81;5049340;28;20246;-81
2022/06/02 11:34:41;;;;;;;8.30;7.65;;;;;;;27.51;29.38;92992.22;5069272;28;20228;-82
2022/06/02 11:37:21;;;;;;;7.75;7.03;;;;;;;27.35;31.46;92985.63;5072370;28;20256;-79
2022/06/02 11:40:13;;;;;;;7.90;7.32;;;;;;;27.66;34.38;92985.03;5069359;28;20731;-80
2022/06/02 11:43:01;;;;;;;7.93;7.22;;;;;;;27.79;33.84;92996.97;5070095;28;20229;-80
2022/06/02 11:46:00;;;;;;;8.60;8.00;;;;;;;28.02;31.43;92997.50;5103404;28;20182;-80
2022/06/02 11:48:44;;;;;;;8.75;7.95;;;;;;;28.31;30.08;92991.09;5070030;28;20911;-81
2022/06/02 11:51:41;;;;;;;8.13;7.47;;;;;;;28.12;31.45;92986.03;5069754;28;20208;-81
2022/06/02 11:54:17;;;;;;;7.95;7.45;;;;;;;28.22;32.23;92985.28;5070481;28;20289;-80
2022/06/02 11:56:58;;;;;;;8.43;7.85;;;;;;;28.36;32.05;92996.09;5070208;28;20217;-81
2022/06/02 12:00:08;;;;;;;9.40;8.55;;;;;;;27.52;34.85;92971.53;5086429;28;20197;-82
2022/06/02 12:03:11;;;;;;;10.10;7.90;;;;;;;26.55;32.38;92938.19;5043166;28;20452;-90
2022/06/02 12:06:13;;;;;;;8.30;7.57;;;;;;;26.92;33.98;92960.34;5050960;28;20197;-86
2022/06/02 12:08:58;;;;;;;8.25;7.60;;;;;;;27.58;31.99;92965.41;5050804;28;20229;-90
2022/06/02 12:11:39;;;;;;;9.27;8.50;;;;;;;27.78;33.57;92963.25;5049333;28;20249;-87
2022/06/02 12:14:22;;;;;;;7.90;7.40;;;;;;;28.26;31.26;92967.28;5050534;28;20208;-85
2022/06/02 12:16:56;;;;;;;8.00;7.43;;;;;;;28.12;31.13;92980.69;5050161;28;20317;-84
2022/06/02 12:19:54;;;;;;;8.32;7.72;;;;;;;28.11;32.39;92979.16;5049401;28;20205;-84
2022/06/02 12:22:32;;;;;;;8.35;7.85;;;;;;;28.31;31.27;92963.47;5049738;28;20241;-83
2022/06/02 12:25:22;;;;;;;7.80;7.20;;;;;;;28.26;31.86;92967.28;5048255;28;20197;-80
2022/06/02 12:28:33;;;;;;;8.93;8.23;;;;;;;28.38;32.26;92966.94;5049322;28;20217;-78
2022/06/02 12:31:37;;;;;;;8.40;7.78;;;;;;;27.82;33.25;92969.38;5050462;28;20189;-77
2022/06/02 12:34:21;;;;;;;8.43;7.75;;;;;;;27.45;34.39;92964.22;5069583;28;20318;-77
2022/06/02 12:36:57;;;;;;;7.90;7.40;;;;;;;27.86;33.69;92964.81;5068300;28;20233;-78
2022/06/02 12:39:34;;;;;;;8.82;8.23;;;;;;;27.59;35.46;92968.88;5068692;28;20215;-78
2022/06/02 12:42:12;;;;;;;9.15;8.48;;;;;;;27.41;35.91;92968.03;5068269;28;20245;-77
2022/06/02 12:45:02;;;;;;;9.20;8.60;;;;;;;27.49;35.96;92966.91;5100526;28;20181;-77
2022/06/02 12:47:46;;;;;;;9.63;8.80;;;;;;;27.46;37.40;92968.44;5067887;28;20233;-77
2022/06/02 12:50:23;;;;;;;9.45;8.55;;;;;;;27.43;37.16;92966.50;5068719;28;20181;-77
2022/06/02 12:53:10;;;;;;;9.52;8.80;;;;;;;27.50;37.25;92968.47;5067968;28;20213;-77
2022/06/02 12:55:35;;;;;;;9.60;8.80;;;;;;;27.52;37.46;92968.84;5067994;28;20192;-76
2022/06/02 12:58:07;;;;;;;8.68;7.97;;;;;;;27.43;38.21;92971.84;5067942;28;20241;-77
2022/06/02 13:00:53;;;;;;;8.65;8.05;;;;;;;27.19;36.99;92955.56;5069351;28;20208;-77
2022/06/02 13:03:37;;;;;;;8.05;7.55;;;;;;;27.31;36.90;92960.66;5067754;28;20204;-77
2022/06/02 13:06:24;;;;;;;8.45;7.75;;;;;;;27.23;38.29;92959.03;5068981;28;20247;-78
2022/06/02 13:08:58;;;;;;;9.43;8.63;;;;;;;27.12;39.33;92961.66;5068242;28;20220;-77